sensor_id;sensor_type;location;lat;lon;timestamp;pressure;altitude;pressure_sealevel;temperature
15607;BMP180;7865;50.918;4.510;2022-07-29T00:00:19;101123.00;;;17.70
15607;BMP180;7865;50.918;4.510;2022-07-29T00:05:21;101115.00;;;17.60
15607;BMP180;7865;50.918;4.510;2022-07-29T00:10:23;101116.00;;;17.60
15607;BMP180;7865;50.918;4.510;2022-07-29T00:15:25;101111.00;;;17.60
15607;BMP180;7865;50.918;4.510;2022-07-29T00:20:27;101099.00;;;17.60
15607;BMP180;7865;50.918;4.510;2022-07-29T00:25:29;101090.00;;;17.60
15607;BMP180;7865;50.918;4.510;2022-07-29T00:30:34;101096.00;;;17.60
15607;BMP180;7865;50.918;4.510;2022-07-29T00:35:36;101094.00;;;17.60
15607;BMP180;7865;50.918;4.510;2022-07-29T00:40:48;101094.00;;;17.60
15607;BMP180;7865;50.918;4.510;2022-07-29T00:45:50;101085.00;;;17.50
15607;BMP180;7865;50.918;4.510;2022-07-29T00:50:52;101076.00;;;17.50
15607;BMP180;7865;50.918;4.510;2022-07-29T00:55:54;101065.00;;;17.40
15607;BMP180;7865;50.918;4.510;2022-07-29T01:00:57;101071.00;;;17.30
15607;BMP180;7865;50.918;4.510;2022-07-29T01:06:00;101067.00;;;17.30
15607;BMP180;7865;50.918;4.510;2022-07-29T01:11:02;101066.00;;;17.20
15607;BMP180;7865;50.918;4.510;2022-07-29T01:16:12;101063.00;;;17.10
15607;BMP180;7865;50.918;4.510;2022-07-29T01:26:51;101069.00;;;17.00
15607;BMP180;7865;50.918;4.510;2022-07-29T01:31:57;101076.00;;;16.80
15607;BMP180;7865;50.918;4.510;2022-07-29T01:37:10;101070.00;;;16.80
15607;BMP180;7865;50.918;4.510;2022-07-29T01:47:41;101062.00;;;16.80
15607;BMP180;7865;50.918;4.510;2022-07-29T01:52:58;101065.00;;;16.70
15607;BMP180;7865;50.918;4.510;2022-07-29T01:58:03;101047.00;;;16.60
15607;BMP180;7865;50.918;4.510;2022-07-29T02:03:09;101040.00;;;16.40
15607;BMP180;7865;50.918;4.510;2022-07-29T02:08:13;101031.00;;;16.30
15607;BMP180;7865;50.918;4.510;2022-07-29T02:13:17;101035.00;;;16.20
15607;BMP180;7865;50.918;4.510;2022-07-29T02:18:22;101043.00;;;16.00
15607;BMP180;7865;50.918;4.510;2022-07-29T02:23:26;101048.00;;;15.80
15607;BMP180;7865;50.918;4.510;2022-07-29T02:28:29;101051.00;;;15.70
15607;BMP180;7865;50.918;4.510;2022-07-29T02:33:32;101056.00;;;15.50
15607;BMP180;7865;50.918;4.510;2022-07-29T02:38:35;101043.00;;;15.40
15607;BMP180;7865;50.918;4.510;2022-07-29T02:44:02;101043.00;;;15.30
15607;BMP180;7865;50.918;4.510;2022-07-29T02:54:39;101056.00;;;15.10
15607;BMP180;7865;50.918;4.510;2022-07-29T02:59:42;101040.00;;;15.10
15607;BMP180;7865;50.918;4.510;2022-07-29T03:04:46;101042.00;;;15.00
15607;BMP180;7865;50.918;4.510;2022-07-29T03:09:49;101039.00;;;14.90
15607;BMP180;7865;50.918;4.510;2022-07-29T03:14:52;101044.00;;;14.90
15607;BMP180;7865;50.918;4.510;2022-07-29T03:19:55;101039.00;;;14.90
15607;BMP180;7865;50.918;4.510;2022-07-29T03:24:57;101038.00;;;14.80
15607;BMP180;7865;50.918;4.510;2022-07-29T03:29:59;101040.00;;;14.70
15607;BMP180;7865;50.918;4.510;2022-07-29T03:35:02;101042.00;;;14.70
15607;BMP180;7865;50.918;4.510;2022-07-29T03:40:07;101041.00;;;14.60
15607;BMP180;7865;50.918;4.510;2022-07-29T03:45:13;101038.00;;;14.50
15607;BMP180;7865;50.918;4.510;2022-07-29T03:50:17;101046.00;;;14.40
15607;BMP180;7865;50.918;4.510;2022-07-29T03:55:21;101045.00;;;14.30
15607;BMP180;7865;50.918;4.510;2022-07-29T04:00:24;101042.00;;;14.20
15607;BMP180;7865;50.918;4.510;2022-07-29T04:05:27;101053.00;;;14.10
15607;BMP180;7865;50.918;4.510;2022-07-29T04:10:29;101058.00;;;14.10
15607;BMP180;7865;50.918;4.510;2022-07-29T04:15:32;101062.00;;;14.10
15607;BMP180;7865;50.918;4.510;2022-07-29T04:20:35;101057.00;;;14.10
15607;BMP180;7865;50.918;4.510;2022-07-29T04:25:38;101063.00;;;14.20
15607;BMP180;7865;50.918;4.510;2022-07-29T04:30:40;101074.00;;;14.20
15607;BMP180;7865;50.918;4.510;2022-07-29T04:35:42;101075.00;;;14.20
15607;BMP180;7865;50.918;4.510;2022-07-29T04:40:51;101075.00;;;14.30
15607;BMP180;7865;50.918;4.510;2022-07-29T04:45:53;101078.00;;;14.40
15607;BMP180;7865;50.918;4.510;2022-07-29T04:50:55;101079.00;;;14.50
15607;BMP180;7865;50.918;4.510;2022-07-29T04:55:58;101093.00;;;14.60
15607;BMP180;7865;50.918;4.510;2022-07-29T05:01:00;101101.00;;;14.80
15607;BMP180;7865;50.918;4.510;2022-07-29T05:06:02;101100.00;;;15.00
15607;BMP180;7865;50.918;4.510;2022-07-29T05:11:04;101104.00;;;15.30
15607;BMP180;7865;50.918;4.510;2022-07-29T05:16:13;101101.00;;;15.70
15607;BMP180;7865;50.918;4.510;2022-07-29T05:21:16;101104.00;;;16.00
15607;BMP180;7865;50.918;4.510;2022-07-29T05:26:18;101107.00;;;16.40
15607;BMP180;7865;50.918;4.510;2022-07-29T05:31:20;101117.00;;;16.90
15607;BMP180;7865;50.918;4.510;2022-07-29T05:36:22;101122.00;;;17.50
15607;BMP180;7865;50.918;4.510;2022-07-29T05:41:24;101125.00;;;18.10
15607;BMP180;7865;50.918;4.510;2022-07-29T05:46:27;101137.00;;;18.50
15607;BMP180;7865;50.918;4.510;2022-07-29T05:51:29;101131.00;;;19.10
15607;BMP180;7865;50.918;4.510;2022-07-29T05:56:31;101145.00;;;19.00
15607;BMP180;7865;50.918;4.510;2022-07-29T06:01:33;101142.00;;;18.60
15607;BMP180;7865;50.918;4.510;2022-07-29T06:06:35;101137.00;;;18.50
15607;BMP180;7865;50.918;4.510;2022-07-29T06:11:37;101132.00;;;18.60
15607;BMP180;7865;50.918;4.510;2022-07-29T06:16:40;101140.00;;;19.20
15607;BMP180;7865;50.918;4.510;2022-07-29T06:21:43;101132.00;;;19.90
15607;BMP180;7865;50.918;4.510;2022-07-29T06:26:46;101134.00;;;20.90
15607;BMP180;7865;50.918;4.510;2022-07-29T06:31:48;101142.00;;;21.50
15607;BMP180;7865;50.918;4.510;2022-07-29T06:36:50;101141.00;;;21.80
15607;BMP180;7865;50.918;4.510;2022-07-29T06:41:54;101149.00;;;22.00
15607;BMP180;7865;50.918;4.510;2022-07-29T06:47:00;101152.00;;;21.90
15607;BMP180;7865;50.918;4.510;2022-07-29T06:52:02;101143.00;;;22.10
15607;BMP180;7865;50.918;4.510;2022-07-29T06:57:04;101149.00;;;22.60
15607;BMP180;7865;50.918;4.510;2022-07-29T07:02:06;101156.00;;;23.00
15607;BMP180;7865;50.918;4.510;2022-07-29T07:07:08;101162.00;;;23.30
15607;BMP180;7865;50.918;4.510;2022-07-29T07:12:10;101171.00;;;23.90
15607;BMP180;7865;50.918;4.510;2022-07-29T07:17:12;101165.00;;;24.70
15607;BMP180;7865;50.918;4.510;2022-07-29T07:22:14;101177.00;;;25.80
15607;BMP180;7865;50.918;4.510;2022-07-29T07:27:16;101177.00;;;26.20
15607;BMP180;7865;50.918;4.510;2022-07-29T07:32:18;101180.00;;;26.80
15607;BMP180;7865;50.918;4.510;2022-07-29T07:37:21;101171.00;;;27.20
15607;BMP180;7865;50.918;4.510;2022-07-29T07:42:23;101168.00;;;27.00
15607;BMP180;7865;50.918;4.510;2022-07-29T07:47:25;101168.00;;;26.70
15607;BMP180;7865;50.918;4.510;2022-07-29T07:52:29;101161.00;;;26.60
15607;BMP180;7865;50.918;4.510;2022-07-29T07:57:31;101163.00;;;26.40
15607;BMP180;7865;50.918;4.510;2022-07-29T08:02:33;101168.00;;;26.30
15607;BMP180;7865;50.918;4.510;2022-07-29T08:07:35;101175.00;;;26.10
15607;BMP180;7865;50.918;4.510;2022-07-29T08:12:38;101180.00;;;26.10
15607;BMP180;7865;50.918;4.510;2022-07-29T08:17:39;101176.00;;;26.30
15607;BMP180;7865;50.918;4.510;2022-07-29T08:22:43;101179.00;;;26.30
15607;BMP180;7865;50.918;4.510;2022-07-29T08:27:47;101181.00;;;26.30
15607;BMP180;7865;50.918;4.510;2022-07-29T08:32:49;101178.00;;;26.70
15607;BMP180;7865;50.918;4.510;2022-07-29T08:37:56;101171.00;;;27.00
15607;BMP180;7865;50.918;4.510;2022-07-29T08:43:04;101171.00;;;27.30
15607;BMP180;7865;50.918;4.510;2022-07-29T08:48:07;101173.00;;;27.00
15607;BMP180;7865;50.918;4.510;2022-07-29T08:53:13;101180.00;;;27.60
15607;BMP180;7865;50.918;4.510;2022-07-29T08:58:17;101186.00;;;27.90
15607;BMP180;7865;50.918;4.510;2022-07-29T09:03:27;101179.00;;;27.80
15607;BMP180;7865;50.918;4.510;2022-07-29T09:08:32;101179.00;;;28.30
15607;BMP180;7865;50.918;4.510;2022-07-29T09:13:34;101173.00;;;28.50
15607;BMP180;7865;50.918;4.510;2022-07-29T09:18:39;101183.00;;;28.90
15607;BMP180;7865;50.918;4.510;2022-07-29T09:23:59;101173.00;;;29.10
15607;BMP180;7865;50.918;4.510;2022-07-29T09:29:16;101183.00;;;28.90
15607;BMP180;7865;50.918;4.510;2022-07-29T09:34:27;101171.00;;;29.70
15607;BMP180;7865;50.918;4.510;2022-07-29T09:39:35;101174.00;;;29.80
15607;BMP180;7865;50.918;4.510;2022-07-29T09:44:44;101183.00;;;30.40
15607;BMP180;7865;50.918;4.510;2022-07-29T09:49:58;101186.00;;;31.10
15607;BMP180;7865;50.918;4.510;2022-07-29T09:55:08;101190.00;;;30.80
15607;BMP180;7865;50.918;4.510;2022-07-29T10:00:20;101189.00;;;31.20
15607;BMP180;7865;50.918;4.510;2022-07-29T10:05:26;101189.00;;;31.60
15607;BMP180;7865;50.918;4.510;2022-07-29T10:10:40;101192.00;;;30.90
15607;BMP180;7865;50.918;4.510;2022-07-29T10:15:44;101185.00;;;31.50
15607;BMP180;7865;50.918;4.510;2022-07-29T10:20:48;101178.00;;;32.10
15607;BMP180;7865;50.918;4.510;2022-07-29T10:25:50;101179.00;;;32.10
15607;BMP180;7865;50.918;4.510;2022-07-29T10:31:00;101181.00;;;31.90
15607;BMP180;7865;50.918;4.510;2022-07-29T10:41:47;101173.00;;;32.40
15607;BMP180;7865;50.918;4.510;2022-07-29T10:46:56;101180.00;;;32.80
15607;BMP180;7865;50.918;4.510;2022-07-29T10:52:03;101177.00;;;33.30
15607;BMP180;7865;50.918;4.510;2022-07-29T11:19:22;101170.00;;;33.10
15607;BMP180;7865;50.918;4.510;2022-07-29T11:24:32;101160.00;;;34.10
15607;BMP180;7865;50.918;4.510;2022-07-29T11:29:40;101153.00;;;33.80
15607;BMP180;7865;50.918;4.510;2022-07-29T11:34:43;101163.00;;;34.60
15607;BMP180;7865;50.918;4.510;2022-07-29T11:45:07;101156.00;;;35.10
15607;BMP180;7865;50.918;4.510;2022-07-29T11:50:34;101167.00;;;35.50
15607;BMP180;7865;50.918;4.510;2022-07-29T11:55:38;101172.00;;;34.30
15607;BMP180;7865;50.918;4.510;2022-07-29T12:00:52;101176.00;;;33.30
15607;BMP180;7865;50.918;4.510;2022-07-29T12:05:56;101177.00;;;32.00
15607;BMP180;7865;50.918;4.510;2022-07-29T12:10:59;101183.00;;;31.40
15607;BMP180;7865;50.918;4.510;2022-07-29T12:16:02;101184.00;;;31.20
15607;BMP180;7865;50.918;4.510;2022-07-29T12:21:05;101181.00;;;31.00
15607;BMP180;7865;50.918;4.510;2022-07-29T12:26:07;101175.00;;;33.00
15607;BMP180;7865;50.918;4.510;2022-07-29T12:31:15;101175.00;;;33.50
15607;BMP180;7865;50.918;4.510;2022-07-29T12:36:40;101180.00;;;33.90
15607;BMP180;7865;50.918;4.510;2022-07-29T12:41:43;101177.00;;;32.70
15607;BMP180;7865;50.918;4.510;2022-07-29T12:46:45;101170.00;;;32.60
15607;BMP180;7865;50.918;4.510;2022-07-29T12:52:40;101172.00;;;33.60
15607;BMP180;7865;50.918;4.510;2022-07-29T12:57:47;101170.00;;;35.00
15607;BMP180;7865;50.918;4.510;2022-07-29T13:02:58;101178.00;;;35.10
15607;BMP180;7865;50.918;4.510;2022-07-29T13:08:17;101160.00;;;33.40
15607;BMP180;7865;50.918;4.510;2022-07-29T13:13:24;101167.00;;;34.70
15607;BMP180;7865;50.918;4.510;2022-07-29T13:18:33;101181.00;;;34.90
15607;BMP180;7865;50.918;4.510;2022-07-29T13:23:39;101173.00;;;32.70
15607;BMP180;7865;50.918;4.510;2022-07-29T13:28:42;101168.00;;;32.60
15607;BMP180;7865;50.918;4.510;2022-07-29T13:33:45;101172.00;;;33.30
15607;BMP180;7865;50.918;4.510;2022-07-29T13:38:47;101169.00;;;34.00
15607;BMP180;7865;50.918;4.510;2022-07-29T13:43:49;101164.00;;;34.00
15607;BMP180;7865;50.918;4.510;2022-07-29T13:48:51;101173.00;;;33.00
15607;BMP180;7865;50.918;4.510;2022-07-29T13:53:53;101167.00;;;31.20
15607;BMP180;7865;50.918;4.510;2022-07-29T13:58:55;101178.00;;;30.20
15607;BMP180;7865;50.918;4.510;2022-07-29T14:03:58;101178.00;;;29.10
15607;BMP180;7865;50.918;4.510;2022-07-29T14:09:03;101165.00;;;32.60
15607;BMP180;7865;50.918;4.510;2022-07-29T14:14:08;101161.00;;;32.60
15607;BMP180;7865;50.918;4.510;2022-07-29T14:19:12;101164.00;;;35.40
15607;BMP180;7865;50.918;4.510;2022-07-29T14:24:14;101166.00;;;35.60
15607;BMP180;7865;50.918;4.510;2022-07-29T14:29:18;101165.00;;;36.60
15607;BMP180;7865;50.918;4.510;2022-07-29T14:34:22;101169.00;;;36.70
15607;BMP180;7865;50.918;4.510;2022-07-29T14:39:24;101159.00;;;34.80
15607;BMP180;7865;50.918;4.510;2022-07-29T14:44:32;101166.00;;;38.30
15607;BMP180;7865;50.918;4.510;2022-07-29T14:49:34;101165.00;;;39.50
15607;BMP180;7865;50.918;4.510;2022-07-29T14:54:36;101168.00;;;39.50
15607;BMP180;7865;50.918;4.510;2022-07-29T14:59:39;101173.00;;;39.00
15607;BMP180;7865;50.918;4.510;2022-07-29T15:04:41;101162.00;;;37.50
15607;BMP180;7865;50.918;4.510;2022-07-29T15:09:43;101170.00;;;37.80
15607;BMP180;7865;50.918;4.510;2022-07-29T15:14:50;101190.00;;;35.30
15607;BMP180;7865;50.918;4.510;2022-07-29T15:19:52;101176.00;;;35.90
15607;BMP180;7865;50.918;4.510;2022-07-29T15:24:54;101164.00;;;36.40
15607;BMP180;7865;50.918;4.510;2022-07-29T15:29:56;101159.00;;;38.80
15607;BMP180;7865;50.918;4.510;2022-07-29T15:34:58;101182.00;;;32.90
15607;BMP180;7865;50.918;4.510;2022-07-29T15:40:01;101162.00;;;33.60
15607;BMP180;7865;50.918;4.510;2022-07-29T15:45:04;101156.00;;;37.40
15607;BMP180;7865;50.918;4.510;2022-07-29T15:50:06;101167.00;;;37.10
15607;BMP180;7865;50.918;4.510;2022-07-29T15:55:13;101173.00;;;34.20
15607;BMP180;7865;50.918;4.510;2022-07-29T16:00:17;101163.00;;;31.80
15607;BMP180;7865;50.918;4.510;2022-07-29T16:05:19;101162.00;;;30.50
15607;BMP180;7865;50.918;4.510;2022-07-29T16:10:21;101158.00;;;29.80
15607;BMP180;7865;50.918;4.510;2022-07-29T16:15:23;101159.00;;;28.50
15607;BMP180;7865;50.918;4.510;2022-07-29T16:20:25;101164.00;;;27.50
15607;BMP180;7865;50.918;4.510;2022-07-29T16:25:31;101157.00;;;27.40
15607;BMP180;7865;50.918;4.510;2022-07-29T16:30:53;101151.00;;;27.70
15607;BMP180;7865;50.918;4.510;2022-07-29T16:35:55;101146.00;;;27.60
15607;BMP180;7865;50.918;4.510;2022-07-29T16:40:57;101142.00;;;27.40
15607;BMP180;7865;50.918;4.510;2022-07-29T16:45:59;101141.00;;;27.60
15607;BMP180;7865;50.918;4.510;2022-07-29T16:51:06;101149.00;;;27.60
15607;BMP180;7865;50.918;4.510;2022-07-29T16:56:09;101156.00;;;27.40
15607;BMP180;7865;50.918;4.510;2022-07-29T17:01:13;101155.00;;;26.80
15607;BMP180;7865;50.918;4.510;2022-07-29T17:06:15;101156.00;;;26.50
15607;BMP180;7865;50.918;4.510;2022-07-29T17:11:17;101156.00;;;26.50
15607;BMP180;7865;50.918;4.510;2022-07-29T17:16:20;101160.00;;;26.20
15607;BMP180;7865;50.918;4.510;2022-07-29T17:21:25;101168.00;;;25.90
15607;BMP180;7865;50.918;4.510;2022-07-29T17:26:27;101172.00;;;25.80
15607;BMP180;7865;50.918;4.510;2022-07-29T17:31:29;101176.00;;;25.60
15607;BMP180;7865;50.918;4.510;2022-07-29T17:36:31;101181.00;;;25.60
15607;BMP180;7865;50.918;4.510;2022-07-29T17:41:33;101177.00;;;25.40
15607;BMP180;7865;50.918;4.510;2022-07-29T17:46:35;101184.00;;;25.20
15607;BMP180;7865;50.918;4.510;2022-07-29T17:51:39;101183.00;;;25.00
15607;BMP180;7865;50.918;4.510;2022-07-29T17:56:41;101192.00;;;24.90
15607;BMP180;7865;50.918;4.510;2022-07-29T18:01:43;101188.00;;;24.60
15607;BMP180;7865;50.918;4.510;2022-07-29T18:06:45;101195.00;;;24.40
15607;BMP180;7865;50.918;4.510;2022-07-29T18:11:47;101194.00;;;24.10
15607;BMP180;7865;50.918;4.510;2022-07-29T18:16:49;101207.00;;;23.70
15607;BMP180;7865;50.918;4.510;2022-07-29T18:21:51;101201.00;;;23.60
15607;BMP180;7865;50.918;4.510;2022-07-29T18:26:57;101204.00;;;23.50
15607;BMP180;7865;50.918;4.510;2022-07-29T18:31:59;101201.00;;;23.50
15607;BMP180;7865;50.918;4.510;2022-07-29T18:37:03;101203.00;;;23.50
15607;BMP180;7865;50.918;4.510;2022-07-29T18:42:06;101217.00;;;23.50
15607;BMP180;7865;50.918;4.510;2022-07-29T18:47:08;101213.00;;;23.40
15607;BMP180;7865;50.918;4.510;2022-07-29T18:52:12;101220.00;;;23.20
15607;BMP180;7865;50.918;4.510;2022-07-29T18:57:15;101238.00;;;23.00
15607;BMP180;7865;50.918;4.510;2022-07-29T19:02:41;101236.00;;;22.80
15607;BMP180;7865;50.918;4.510;2022-07-29T19:07:43;101238.00;;;22.60
15607;BMP180;7865;50.918;4.510;2022-07-29T19:12:45;101248.00;;;22.40
15607;BMP180;7865;50.918;4.510;2022-07-29T19:17:49;101247.00;;;22.10
15607;BMP180;7865;50.918;4.510;2022-07-29T19:22:51;101259.00;;;21.90
15607;BMP180;7865;50.918;4.510;2022-07-29T19:27:53;101276.00;;;21.70
15607;BMP180;7865;50.918;4.510;2022-07-29T19:32:56;101282.00;;;21.40
15607;BMP180;7865;50.918;4.510;2022-07-29T19:38:00;101298.00;;;21.20
15607;BMP180;7865;50.918;4.510;2022-07-29T19:43:02;101300.00;;;21.00
15607;BMP180;7865;50.918;4.510;2022-07-29T19:48:25;101307.00;;;20.90
15607;BMP180;7865;50.918;4.510;2022-07-29T19:53:27;101310.00;;;20.70
15607;BMP180;7865;50.918;4.510;2022-07-29T19:58:30;101326.00;;;20.50
15607;BMP180;7865;50.918;4.510;2022-07-29T20:03:36;101331.00;;;20.40
15607;BMP180;7865;50.918;4.510;2022-07-29T20:08:40;101338.00;;;20.30
15607;BMP180;7865;50.918;4.510;2022-07-29T20:13:42;101342.00;;;20.10
15607;BMP180;7865;50.918;4.510;2022-07-29T20:18:45;101337.00;;;20.00
15607;BMP180;7865;50.918;4.510;2022-07-29T20:23:48;101343.00;;;19.90
15607;BMP180;7865;50.918;4.510;2022-07-29T20:28:50;101343.00;;;19.70
15607;BMP180;7865;50.918;4.510;2022-07-29T20:33:52;101341.00;;;19.60
15607;BMP180;7865;50.918;4.510;2022-07-29T20:38:55;101347.00;;;19.40
15607;BMP180;7865;50.918;4.510;2022-07-29T20:43:59;101352.00;;;19.20
15607;BMP180;7865;50.918;4.510;2022-07-29T20:49:01;101346.00;;;19.10
15607;BMP180;7865;50.918;4.510;2022-07-29T20:54:03;101356.00;;;19.00
15607;BMP180;7865;50.918;4.510;2022-07-29T20:59:05;101346.00;;;18.90
15607;BMP180;7865;50.918;4.510;2022-07-29T21:04:08;101339.00;;;18.70
15607;BMP180;7865;50.918;4.510;2022-07-29T21:09:10;101352.00;;;18.60
15607;BMP180;7865;50.918;4.510;2022-07-29T21:14:13;101364.00;;;18.50
15607;BMP180;7865;50.918;4.510;2022-07-29T21:19:27;101364.00;;;18.40
15607;BMP180;7865;50.918;4.510;2022-07-29T21:24:29;101368.00;;;18.20
15607;BMP180;7865;50.918;4.510;2022-07-29T21:29:31;101371.00;;;18.10
15607;BMP180;7865;50.918;4.510;2022-07-29T21:34:34;101366.00;;;18.00
15607;BMP180;7865;50.918;4.510;2022-07-29T21:39:36;101348.00;;;17.90
15607;BMP180;7865;50.918;4.510;2022-07-29T21:44:39;101351.00;;;17.80
15607;BMP180;7865;50.918;4.510;2022-07-29T21:49:41;101346.00;;;17.70
15607;BMP180;7865;50.918;4.510;2022-07-29T21:54:44;101355.00;;;17.60
15607;BMP180;7865;50.918;4.510;2022-07-29T21:59:46;101358.00;;;17.40
15607;BMP180;7865;50.918;4.510;2022-07-29T22:04:48;101359.00;;;17.40
15607;BMP180;7865;50.918;4.510;2022-07-29T22:09:55;101367.00;;;17.30
15607;BMP180;7865;50.918;4.510;2022-07-29T22:15:03;101369.00;;;17.20
15607;BMP180;7865;50.918;4.510;2022-07-29T22:20:06;101372.00;;;17.10
15607;BMP180;7865;50.918;4.510;2022-07-29T22:25:08;101379.00;;;17.00
15607;BMP180;7865;50.918;4.510;2022-07-29T22:30:12;101385.00;;;17.00
15607;BMP180;7865;50.918;4.510;2022-07-29T22:35:14;101378.00;;;16.90
15607;BMP180;7865;50.918;4.510;2022-07-29T22:40:16;101380.00;;;16.90
15607;BMP180;7865;50.918;4.510;2022-07-29T22:45:18;101396.00;;;16.90
15607;BMP180;7865;50.918;4.510;2022-07-29T22:50:23;101400.00;;;16.80
15607;BMP180;7865;50.918;4.510;2022-07-29T22:55:25;101398.00;;;16.70
15607;BMP180;7865;50.918;4.510;2022-07-29T23:00:27;101404.00;;;16.70
15607;BMP180;7865;50.918;4.510;2022-07-29T23:05:29;101401.00;;;16.60
15607;BMP180;7865;50.918;4.510;2022-07-29T23:10:31;101401.00;;;16.60
15607;BMP180;7865;50.918;4.510;2022-07-29T23:15:33;101391.00;;;16.40
15607;BMP180;7865;50.918;4.510;2022-07-29T23:20:35;101395.00;;;16.30
15607;BMP180;7865;50.918;4.510;2022-07-29T23:25:37;101405.00;;;16.20
15607;BMP180;7865;50.918;4.510;2022-07-29T23:30:40;101401.00;;;16.10
15607;BMP180;7865;50.918;4.510;2022-07-29T23:35:42;101399.00;;;16.00
15607;BMP180;7865;50.918;4.510;2022-07-29T23:40:44;101395.00;;;16.00
15607;BMP180;7865;50.918;4.510;2022-07-29T23:45:46;101388.00;;;15.90
15607;BMP180;7865;50.918;4.510;2022-07-29T23:50:49;101387.00;;;15.80
15607;BMP180;7865;50.918;4.510;2022-07-29T23:55:51;101403.00;;;15.80
